sensor_id;sensor_type;location;lat;lon;timestamp;P1;durP1;ratioP1;P2;durP2;ratioP2
27580;SDS011;63557;52.302;7.964;2023-04-01T00:02:30;16.40;;;11.68;;
27580;SDS011;63557;52.302;7.964;2023-04-01T00:07:30;20.90;;;13.13;;
27580;SDS011;63557;52.302;7.964;2023-04-01T00:12:31;21.65;;;11.95;;
27580;SDS011;63557;52.302;7.964;2023-04-01T00:17:31;23.52;;;12.43;;
27580;SDS011;63557;52.302;7.964;2023-04-01T00:22:31;15.23;;;11.50;;
27580;SDS011;63557;52.302;7.964;2023-04-01T00:27:32;18.23;;;12.10;;
27580;SDS011;63557;52.302;7.964;2023-04-01T00:32:33;16.35;;;11.93;;
27580;SDS011;63557;52.302;7.964;2023-04-01T00:37:36;18.48;;;11.88;;
27580;SDS011;63557;52.302;7.964;2023-04-01T00:42:37;18.30;;;12.75;;
27580;SDS011;63557;52.302;7.964;2023-04-01T00:47:37;19.13;;;11.45;;
27580;SDS011;63557;52.302;7.964;2023-04-01T00:52:38;18.87;;;12.43;;
27580;SDS011;63557;52.302;7.964;2023-04-01T00:57:38;26.47;;;12.70;;
27580;SDS011;63557;52.302;7.964;2023-04-01T01:02:41;18.35;;;12.48;;
27580;SDS011;63557;52.302;7.964;2023-04-01T01:17:55;15.27;;;10.70;;
27580;SDS011;63557;52.302;7.964;2023-04-01T01:33:21;19.07;;;12.93;;
27580;SDS011;63557;52.302;7.964;2023-04-01T01:38:26;22.70;;;13.70;;
27580;SDS011;63557;52.302;7.964;2023-04-01T01:43:39;14.93;;;11.98;;
27580;SDS011;63557;52.302;7.964;2023-04-01T01:48:41;18.70;;;12.07;;
27580;SDS011;63557;52.302;7.964;2023-04-01T01:53:42;19.83;;;13.05;;
27580;SDS011;63557;52.302;7.964;2023-04-01T01:58:44;15.77;;;12.57;;
27580;SDS011;63557;52.302;7.964;2023-04-01T02:03:47;18.02;;;12.20;;
27580;SDS011;63557;52.302;7.964;2023-04-01T02:08:55;17.33;;;12.55;;
27580;SDS011;63557;52.302;7.964;2023-04-01T02:13:58;16.30;;;12.38;;
27580;SDS011;63557;52.302;7.964;2023-04-01T02:19:02;17.02;;;12.00;;
27580;SDS011;63557;52.302;7.964;2023-04-01T02:24:08;16.05;;;10.27;;
27580;SDS011;63557;52.302;7.964;2023-04-01T02:29:10;16.30;;;11.18;;
27580;SDS011;63557;52.302;7.964;2023-04-01T02:34:12;14.73;;;10.90;;
27580;SDS011;63557;52.302;7.964;2023-04-01T02:39:13;13.77;;;9.68;;
27580;SDS011;63557;52.302;7.964;2023-04-01T02:44:14;12.48;;;9.30;;
27580;SDS011;63557;52.302;7.964;2023-04-01T02:49:15;13.00;;;9.32;;
27580;SDS011;63557;52.302;7.964;2023-04-01T02:54:15;12.43;;;8.77;;
27580;SDS011;63557;52.302;7.964;2023-04-01T02:59:17;11.18;;;9.48;;
27580;SDS011;63557;52.302;7.964;2023-04-01T03:04:17;10.75;;;9.20;;
27580;SDS011;63557;52.302;7.964;2023-04-01T03:09:18;12.82;;;10.15;;
27580;SDS011;63557;52.302;7.964;2023-04-01T03:14:18;13.50;;;9.27;;
27580;SDS011;63557;52.302;7.964;2023-04-01T03:19:18;12.03;;;9.00;;
27580;SDS011;63557;52.302;7.964;2023-04-01T03:24:19;12.88;;;9.48;;
27580;SDS011;63557;52.302;7.964;2023-04-01T03:29:21;11.88;;;9.27;;
27580;SDS011;63557;52.302;7.964;2023-04-01T03:34:21;12.82;;;10.45;;
27580;SDS011;63557;52.302;7.964;2023-04-01T03:39:22;15.67;;;10.93;;
27580;SDS011;63557;52.302;7.964;2023-04-01T03:44:23;15.50;;;10.18;;
27580;SDS011;63557;52.302;7.964;2023-04-01T03:49:26;10.73;;;8.98;;
27580;SDS011;63557;52.302;7.964;2023-04-01T03:54:27;9.55;;;8.13;;
27580;SDS011;63557;52.302;7.964;2023-04-01T03:59:27;9.45;;;7.68;;
27580;SDS011;63557;52.302;7.964;2023-04-01T04:04:28;14.82;;;7.38;;
27580;SDS011;63557;52.302;7.964;2023-04-01T04:09:32;8.85;;;7.25;;
27580;SDS011;63557;52.302;7.964;2023-04-01T04:14:33;8.10;;;6.10;;
27580;SDS011;63557;52.302;7.964;2023-04-01T04:19:34;9.48;;;6.50;;
27580;SDS011;63557;52.302;7.964;2023-04-01T04:24:35;7.68;;;6.50;;
27580;SDS011;63557;52.302;7.964;2023-04-01T04:29:41;7.95;;;6.28;;
27580;SDS011;63557;52.302;7.964;2023-04-01T04:34:42;7.53;;;6.53;;
27580;SDS011;63557;52.302;7.964;2023-04-01T04:39:42;8.18;;;6.38;;
27580;SDS011;63557;52.302;7.964;2023-04-01T04:44:43;7.22;;;5.28;;
27580;SDS011;63557;52.302;7.964;2023-04-01T04:49:44;9.18;;;5.50;;
27580;SDS011;63557;52.302;7.964;2023-04-01T04:54:45;12.43;;;6.30;;
27580;SDS011;63557;52.302;7.964;2023-04-01T04:59:46;7.97;;;5.68;;
27580;SDS011;63557;52.302;7.964;2023-04-01T05:04:51;9.77;;;5.57;;
27580;SDS011;63557;52.302;7.964;2023-04-01T05:09:51;8.03;;;6.17;;
27580;SDS011;63557;52.302;7.964;2023-04-01T05:14:55;8.80;;;6.57;;
27580;SDS011;63557;52.302;7.964;2023-04-01T05:19:56;8.75;;;6.65;;
27580;SDS011;63557;52.302;7.964;2023-04-01T05:24:57;7.22;;;6.07;;
27580;SDS011;63557;52.302;7.964;2023-04-01T05:29:58;9.13;;;6.10;;
27580;SDS011;63557;52.302;7.964;2023-04-01T05:35:30;9.05;;;6.82;;
27580;SDS011;63557;52.302;7.964;2023-04-01T05:40:31;8.18;;;6.20;;
27580;SDS011;63557;52.302;7.964;2023-04-01T05:45:32;8.35;;;6.20;;
27580;SDS011;63557;52.302;7.964;2023-04-01T05:51:04;7.72;;;6.32;;
27580;SDS011;63557;52.302;7.964;2023-04-01T05:56:05;8.57;;;6.30;;
27580;SDS011;63557;52.302;7.964;2023-04-01T06:01:11;6.95;;;5.93;;
27580;SDS011;63557;52.302;7.964;2023-04-01T06:06:16;9.88;;;6.88;;
27580;SDS011;63557;52.302;7.964;2023-04-01T06:11:18;9.77;;;7.97;;
27580;SDS011;63557;52.302;7.964;2023-04-01T06:21:54;13.32;;;10.55;;
27580;SDS011;63557;52.302;7.964;2023-04-01T06:27:10;15.23;;;11.63;;
27580;SDS011;63557;52.302;7.964;2023-04-01T06:48:15;10.77;;;9.25;;
27580;SDS011;63557;52.302;7.964;2023-04-01T06:59:04;10.20;;;8.63;;
27580;SDS011;63557;52.302;7.964;2023-04-01T07:09:10;10.07;;;9.02;;
27580;SDS011;63557;52.302;7.964;2023-04-01T07:14:32;10.45;;;7.97;;
27580;SDS011;63557;52.302;7.964;2023-04-01T07:29:51;10.43;;;8.50;;
27580;SDS011;63557;52.302;7.964;2023-04-01T07:40:04;11.23;;;9.63;;
27580;SDS011;63557;52.302;7.964;2023-04-01T07:45:29;13.85;;;10.43;;
27580;SDS011;63557;52.302;7.964;2023-04-01T07:50:32;11.98;;;9.10;;
27580;SDS011;63557;52.302;7.964;2023-04-01T08:00:59;9.50;;;8.13;;
27580;SDS011;63557;52.302;7.964;2023-04-01T08:22:43;8.88;;;7.22;;
27580;SDS011;63557;52.302;7.964;2023-04-01T08:27:53;6.90;;;6.30;;
27580;SDS011;63557;52.302;7.964;2023-04-01T08:32:56;6.57;;;5.53;;
27580;SDS011;63557;52.302;7.964;2023-04-01T08:38:00;6.18;;;5.57;;
27580;SDS011;63557;52.302;7.964;2023-04-01T09:24:41;8.18;;;6.45;;
27580;SDS011;63557;52.302;7.964;2023-04-01T09:45:07;7.25;;;6.55;;
27580;SDS011;63557;52.302;7.964;2023-04-01T10:05:57;8.70;;;7.90;;
27580;SDS011;63557;52.302;7.964;2023-04-01T10:53:05;11.30;;;10.20;;
27580;SDS011;63557;52.302;7.964;2023-04-01T11:25:20;9.85;;;8.85;;
27580;SDS011;63557;52.302;7.964;2023-04-01T11:31:00;8.45;;;7.35;;
27580;SDS011;63557;52.302;7.964;2023-04-01T11:36:06;13.30;;;6.90;;
27580;SDS011;63557;52.302;7.964;2023-04-01T12:17:48;6.03;;;5.43;;
27580;SDS011;63557;52.302;7.964;2023-04-01T12:28:36;5.77;;;5.17;;
27580;SDS011;63557;52.302;7.964;2023-04-01T12:33:25;9.25;;;6.18;;
27580;SDS011;63557;52.302;7.964;2023-04-01T12:53:49;8.70;;;6.50;;
27580;SDS011;63557;52.302;7.964;2023-04-01T12:58:55;6.32;;;5.18;;
27580;SDS011;63557;52.302;7.964;2023-04-01T13:19:45;5.57;;;4.80;;
27580;SDS011;63557;52.302;7.964;2023-04-01T13:40:26;4.13;;;3.80;;
27580;SDS011;63557;52.302;7.964;2023-04-01T13:45:32;5.25;;;4.07;;
27580;SDS011;63557;52.302;7.964;2023-04-01T14:27:30;2.17;;;2.08;;
27580;SDS011;63557;52.302;7.964;2023-04-01T14:53:29;2.40;;;2.20;;
27580;SDS011;63557;52.302;7.964;2023-04-01T14:58:47;2.40;;;2.20;;
27580;SDS011;63557;52.302;7.964;2023-04-01T15:03:55;2.75;;;2.55;;
27580;SDS011;63557;52.302;7.964;2023-04-01T15:24:07;4.00;;;3.13;;
27580;SDS011;63557;52.302;7.964;2023-04-01T15:29:56;3.43;;;2.70;;
27580;SDS011;63557;52.302;7.964;2023-04-01T16:15:44;1.08;;;1.08;;
27580;SDS011;63557;52.302;7.964;2023-04-01T16:20:49;1.20;;;1.20;;
27580;SDS011;63557;52.302;7.964;2023-04-01T16:26:08;1.60;;;1.50;;
27580;SDS011;63557;52.302;7.964;2023-04-01T16:36:29;1.70;;;1.60;;
27580;SDS011;63557;52.302;7.964;2023-04-01T16:41:36;1.30;;;1.30;;
27580;SDS011;63557;52.302;7.964;2023-04-01T16:46:46;1.65;;;1.52;;
27580;SDS011;63557;52.302;7.964;2023-04-01T16:56:55;1.90;;;1.80;;
27580;SDS011;63557;52.302;7.964;2023-04-01T17:01:57;2.00;;;1.90;;
27580;SDS011;63557;52.302;7.964;2023-04-01T17:33:22;1.70;;;1.60;;
27580;SDS011;63557;52.302;7.964;2023-04-01T17:43:29;2.35;;;2.15;;
27580;SDS011;63557;52.302;7.964;2023-04-01T17:48:40;3.75;;;3.45;;
27580;SDS011;63557;52.302;7.964;2023-04-01T17:53:54;4.00;;;3.70;;
27580;SDS011;63557;52.302;7.964;2023-04-01T18:10:02;3.20;;;2.90;;
27580;SDS011;63557;52.302;7.964;2023-04-01T18:15:04;3.75;;;3.10;;
27580;SDS011;63557;52.302;7.964;2023-04-01T18:30:27;4.13;;;3.72;;
27580;SDS011;63557;52.302;7.964;2023-04-01T18:40:38;4.75;;;4.32;;
27580;SDS011;63557;52.302;7.964;2023-04-01T18:45:54;4.28;;;3.88;;
27580;SDS011;63557;52.302;7.964;2023-04-01T18:50:57;4.93;;;4.40;;
27580;SDS011;63557;52.302;7.964;2023-04-01T18:56:00;4.72;;;4.25;;
27580;SDS011;63557;52.302;7.964;2023-04-01T19:06:42;5.32;;;4.20;;
27580;SDS011;63557;52.302;7.964;2023-04-01T19:22:21;3.70;;;3.40;;
27580;SDS011;63557;52.302;7.964;2023-04-01T19:32:33;4.10;;;3.70;;
27580;SDS011;63557;52.302;7.964;2023-04-01T19:37:39;3.75;;;3.45;;
27580;SDS011;63557;52.302;7.964;2023-04-01T19:58:33;3.80;;;3.50;;
27580;SDS011;63557;52.302;7.964;2023-04-01T20:19:01;2.13;;;2.03;;
27580;SDS011;63557;52.302;7.964;2023-04-01T20:24:20;2.60;;;2.40;;
27580;SDS011;63557;52.302;7.964;2023-04-01T20:55:47;4.82;;;3.90;;
27580;SDS011;63557;52.302;7.964;2023-04-01T21:00:57;2.92;;;2.55;;
27580;SDS011;63557;52.302;7.964;2023-04-01T21:11:22;3.53;;;3.17;;
27580;SDS011;63557;52.302;7.964;2023-04-01T21:17:10;3.00;;;2.53;;
27580;SDS011;63557;52.302;7.964;2023-04-01T21:22:12;3.50;;;2.97;;
27580;SDS011;63557;52.302;7.964;2023-04-01T21:27:22;5.80;;;3.50;;
27580;SDS011;63557;52.302;7.964;2023-04-01T21:32:35;5.78;;;4.78;;
27580;SDS011;63557;52.302;7.964;2023-04-01T21:48:02;5.35;;;4.85;;
27580;SDS011;63557;52.302;7.964;2023-04-01T22:14:24;8.23;;;6.28;;
27580;SDS011;63557;52.302;7.964;2023-04-01T22:19:39;7.07;;;6.05;;
27580;SDS011;63557;52.302;7.964;2023-04-01T22:45:24;9.77;;;7.07;;
27580;SDS011;63557;52.302;7.964;2023-04-01T22:56:05;9.23;;;7.97;;
27580;SDS011;63557;52.302;7.964;2023-04-01T23:01:14;11.63;;;8.07;;
27580;SDS011;63557;52.302;7.964;2023-04-01T23:06:31;11.77;;;8.43;;
27580;SDS011;63557;52.302;7.964;2023-04-01T23:17:16;12.25;;;9.15;;
27580;SDS011;63557;52.302;7.964;2023-04-01T23:22:37;14.67;;;9.13;;
27580;SDS011;63557;52.302;7.964;2023-04-01T23:27:40;12.13;;;9.05;;
27580;SDS011;63557;52.302;7.964;2023-04-01T23:32:43;13.30;;;9.27;;
27580;SDS011;63557;52.302;7.964;2023-04-01T23:37:44;14.32;;;10.05;;
27580;SDS011;63557;52.302;7.964;2023-04-01T23:42:45;16.55;;;8.63;;
27580;SDS011;63557;52.302;7.964;2023-04-01T23:47:46;11.57;;;8.88;;
27580;SDS011;63557;52.302;7.964;2023-04-01T23:52:51;10.80;;;7.95;;
27580;SDS011;63557;52.302;7.964;2023-04-01T23:58:06;19.23;;;8.75;;
